sensor_id;sensor_type;location;lat;lon;timestamp;P1;durP1;ratioP1;P2;durP2;ratioP2
11135;SDS011;5622;50.840;4.948;2023-12-22T00:00:39;12.13;;;3.17;;
11135;SDS011;5622;50.840;4.948;2023-12-22T00:03:06;16.27;;;4.00;;
11135;SDS011;5622;50.840;4.948;2023-12-22T00:05:33;24.47;;;4.30;;
11135;SDS011;5622;50.840;4.948;2023-12-22T00:08:00;15.07;;;3.10;;
11135;SDS011;5622;50.840;4.948;2023-12-22T00:10:27;12.70;;;3.20;;
11135;SDS011;5622;50.840;4.948;2023-12-22T00:12:55;14.73;;;3.47;;
11135;SDS011;5622;50.840;4.948;2023-12-22T00:15:22;15.60;;;3.03;;
11135;SDS011;5622;50.840;4.948;2023-12-22T00:17:50;13.23;;;2.40;;
11135;SDS011;5622;50.840;4.948;2023-12-22T00:20:17;19.50;;;3.83;;
11135;SDS011;5622;50.840;4.948;2023-12-22T00:22:44;18.17;;;4.07;;
11135;SDS011;5622;50.840;4.948;2023-12-22T00:25:11;19.13;;;3.73;;
11135;SDS011;5622;50.840;4.948;2023-12-22T00:27:38;16.23;;;3.53;;
11135;SDS011;5622;50.840;4.948;2023-12-22T00:30:07;13.57;;;3.53;;
11135;SDS011;5622;50.840;4.948;2023-12-22T00:32:35;11.07;;;2.83;;
11135;SDS011;5622;50.840;4.948;2023-12-22T00:35:02;11.10;;;2.87;;
11135;SDS011;5622;50.840;4.948;2023-12-22T00:37:30;13.57;;;3.63;;
11135;SDS011;5622;50.840;4.948;2023-12-22T00:39:57;15.17;;;2.80;;
11135;SDS011;5622;50.840;4.948;2023-12-22T00:42:24;15.43;;;3.53;;
11135;SDS011;5622;50.840;4.948;2023-12-22T00:44:52;13.03;;;3.27;;
11135;SDS011;5622;50.840;4.948;2023-12-22T00:47:20;16.13;;;3.83;;
11135;SDS011;5622;50.840;4.948;2023-12-22T00:49:47;14.27;;;3.23;;
11135;SDS011;5622;50.840;4.948;2023-12-22T00:52:14;17.83;;;3.03;;
11135;SDS011;5622;50.840;4.948;2023-12-22T00:54:41;8.43;;;2.90;;
11135;SDS011;5622;50.840;4.948;2023-12-22T00:57:08;7.70;;;2.53;;
11135;SDS011;5622;50.840;4.948;2023-12-22T00:59:36;8.53;;;2.87;;
11135;SDS011;5622;50.840;4.948;2023-12-22T01:02:03;9.97;;;2.40;;
11135;SDS011;5622;50.840;4.948;2023-12-22T01:04:32;9.33;;;3.33;;
11135;SDS011;5622;50.840;4.948;2023-12-22T01:06:59;9.23;;;2.50;;
11135;SDS011;5622;50.840;4.948;2023-12-22T01:09:26;7.60;;;2.43;;
11135;SDS011;5622;50.840;4.948;2023-12-22T01:11:53;12.90;;;2.47;;
11135;SDS011;5622;50.840;4.948;2023-12-22T01:14:20;10.90;;;2.50;;
11135;SDS011;5622;50.840;4.948;2023-12-22T01:16:47;14.13;;;3.80;;
11135;SDS011;5622;50.840;4.948;2023-12-22T01:19:14;18.33;;;3.17;;
11135;SDS011;5622;50.840;4.948;2023-12-22T01:21:42;13.20;;;3.60;;
11135;SDS011;5622;50.840;4.948;2023-12-22T01:24:09;12.57;;;3.07;;
11135;SDS011;5622;50.840;4.948;2023-12-22T01:26:36;12.87;;;3.67;;
11135;SDS011;5622;50.840;4.948;2023-12-22T01:29:03;19.60;;;3.70;;
11135;SDS011;5622;50.840;4.948;2023-12-22T01:31:31;14.50;;;4.13;;
11135;SDS011;5622;50.840;4.948;2023-12-22T01:33:58;15.43;;;4.00;;
11135;SDS011;5622;50.840;4.948;2023-12-22T01:36:26;15.73;;;3.77;;
11135;SDS011;5622;50.840;4.948;2023-12-22T01:38:55;13.63;;;3.70;;
11135;SDS011;5622;50.840;4.948;2023-12-22T01:41:22;11.33;;;3.43;;
11135;SDS011;5622;50.840;4.948;2023-12-22T01:43:49;17.67;;;4.37;;
11135;SDS011;5622;50.840;4.948;2023-12-22T01:46:16;13.40;;;4.20;;
11135;SDS011;5622;50.840;4.948;2023-12-22T01:48:43;16.53;;;3.50;;
11135;SDS011;5622;50.840;4.948;2023-12-22T01:51:10;18.37;;;3.73;;
11135;SDS011;5622;50.840;4.948;2023-12-22T01:53:37;13.63;;;3.60;;
11135;SDS011;5622;50.840;4.948;2023-12-22T01:56:06;17.13;;;3.63;;
11135;SDS011;5622;50.840;4.948;2023-12-22T01:58:34;21.90;;;4.00;;
11135;SDS011;5622;50.840;4.948;2023-12-22T02:01:03;20.47;;;3.93;;
11135;SDS011;5622;50.840;4.948;2023-12-22T02:03:31;16.90;;;3.57;;
11135;SDS011;5622;50.840;4.948;2023-12-22T02:05:59;15.57;;;3.13;;
11135;SDS011;5622;50.840;4.948;2023-12-22T02:08:26;12.30;;;3.73;;
11135;SDS011;5622;50.840;4.948;2023-12-22T02:10:58;20.47;;;4.03;;
11135;SDS011;5622;50.840;4.948;2023-12-22T02:13:26;11.47;;;3.70;;
11135;SDS011;5622;50.840;4.948;2023-12-22T02:15:55;21.37;;;4.00;;
11135;SDS011;5622;50.840;4.948;2023-12-22T02:18:31;23.60;;;3.80;;
11135;SDS011;5622;50.840;4.948;2023-12-22T02:21:01;11.67;;;3.10;;
11135;SDS011;5622;50.840;4.948;2023-12-22T02:23:30;13.37;;;4.30;;
11135;SDS011;5622;50.840;4.948;2023-12-22T02:25:57;19.73;;;5.10;;
11135;SDS011;5622;50.840;4.948;2023-12-22T02:28:32;16.47;;;3.63;;
11135;SDS011;5622;50.840;4.948;2023-12-22T02:31:02;16.93;;;3.80;;
11135;SDS011;5622;50.840;4.948;2023-12-22T02:33:36;19.87;;;4.10;;
11135;SDS011;5622;50.840;4.948;2023-12-22T02:36:04;18.20;;;3.77;;
11135;SDS011;5622;50.840;4.948;2023-12-22T02:38:36;20.57;;;4.23;;
11135;SDS011;5622;50.840;4.948;2023-12-22T02:41:05;15.27;;;3.97;;
11135;SDS011;5622;50.840;4.948;2023-12-22T02:43:33;12.53;;;3.70;;
11135;SDS011;5622;50.840;4.948;2023-12-22T02:46:00;17.73;;;4.63;;
11135;SDS011;5622;50.840;4.948;2023-12-22T02:48:27;15.27;;;3.57;;
11135;SDS011;5622;50.840;4.948;2023-12-22T02:50:55;13.03;;;4.00;;
11135;SDS011;5622;50.840;4.948;2023-12-22T02:53:22;15.83;;;3.77;;
11135;SDS011;5622;50.840;4.948;2023-12-22T02:55:52;19.03;;;3.90;;
11135;SDS011;5622;50.840;4.948;2023-12-22T02:58:19;18.23;;;4.03;;
11135;SDS011;5622;50.840;4.948;2023-12-22T03:00:46;21.60;;;3.90;;
11135;SDS011;5622;50.840;4.948;2023-12-22T03:03:13;14.80;;;3.37;;
11135;SDS011;5622;50.840;4.948;2023-12-22T03:05:40;14.13;;;3.70;;
11135;SDS011;5622;50.840;4.948;2023-12-22T03:08:07;12.40;;;3.17;;
11135;SDS011;5622;50.840;4.948;2023-12-22T03:10:34;14.57;;;3.23;;
11135;SDS011;5622;50.840;4.948;2023-12-22T03:13:03;15.47;;;3.37;;
11135;SDS011;5622;50.840;4.948;2023-12-22T03:15:30;15.77;;;3.47;;
11135;SDS011;5622;50.840;4.948;2023-12-22T03:17:57;17.90;;;3.00;;
11135;SDS011;5622;50.840;4.948;2023-12-22T03:20:23;8.83;;;2.83;;
11135;SDS011;5622;50.840;4.948;2023-12-22T03:22:50;15.53;;;2.97;;
11135;SDS011;5622;50.840;4.948;2023-12-22T03:25:19;13.93;;;3.00;;
11135;SDS011;5622;50.840;4.948;2023-12-22T03:27:46;17.27;;;3.30;;
11135;SDS011;5622;50.840;4.948;2023-12-22T03:30:14;14.07;;;3.20;;
11135;SDS011;5622;50.840;4.948;2023-12-22T03:32:42;12.23;;;3.03;;
11135;SDS011;5622;50.840;4.948;2023-12-22T03:35:09;12.33;;;2.80;;
11135;SDS011;5622;50.840;4.948;2023-12-22T03:37:36;9.30;;;2.33;;
11135;SDS011;5622;50.840;4.948;2023-12-22T03:40:03;13.80;;;3.43;;
11135;SDS011;5622;50.840;4.948;2023-12-22T03:42:31;7.87;;;2.73;;
11135;SDS011;5622;50.840;4.948;2023-12-22T03:44:58;9.63;;;2.37;;
11135;SDS011;5622;50.840;4.948;2023-12-22T03:47:26;5.50;;;2.27;;
11135;SDS011;5622;50.840;4.948;2023-12-22T03:49:53;8.57;;;2.47;;
11135;SDS011;5622;50.840;4.948;2023-12-22T03:52:20;12.67;;;3.33;;
11135;SDS011;5622;50.840;4.948;2023-12-22T03:54:47;13.00;;;2.70;;
11135;SDS011;5622;50.840;4.948;2023-12-22T03:57:15;10.60;;;2.70;;
11135;SDS011;5622;50.840;4.948;2023-12-22T03:59:42;9.53;;;2.63;;
11135;SDS011;5622;50.840;4.948;2023-12-22T04:02:09;14.33;;;2.60;;
11135;SDS011;5622;50.840;4.948;2023-12-22T04:04:38;10.33;;;3.30;;
11135;SDS011;5622;50.840;4.948;2023-12-22T04:07:06;10.47;;;2.33;;
11135;SDS011;5622;50.840;4.948;2023-12-22T04:09:33;9.97;;;2.63;;
11135;SDS011;5622;50.840;4.948;2023-12-22T04:12:00;12.87;;;2.80;;
11135;SDS011;5622;50.840;4.948;2023-12-22T04:14:27;14.87;;;2.90;;
11135;SDS011;5622;50.840;4.948;2023-12-22T04:16:54;11.63;;;3.47;;
11135;SDS011;5622;50.840;4.948;2023-12-22T04:19:24;10.83;;;2.93;;
11135;SDS011;5622;50.840;4.948;2023-12-22T04:21:52;13.73;;;3.07;;
11135;SDS011;5622;50.840;4.948;2023-12-22T04:24:21;11.57;;;3.23;;
11135;SDS011;5622;50.840;4.948;2023-12-22T04:26:48;17.23;;;3.67;;
11135;SDS011;5622;50.840;4.948;2023-12-22T04:29:15;16.60;;;3.17;;
11135;SDS011;5622;50.840;4.948;2023-12-22T04:31:42;13.50;;;3.00;;
11135;SDS011;5622;50.840;4.948;2023-12-22T04:34:09;16.63;;;3.70;;
11135;SDS011;5622;50.840;4.948;2023-12-22T04:36:38;12.80;;;3.03;;
11135;SDS011;5622;50.840;4.948;2023-12-22T04:39:06;12.63;;;2.90;;
11135;SDS011;5622;50.840;4.948;2023-12-22T04:41:33;10.63;;;3.77;;
11135;SDS011;5622;50.840;4.948;2023-12-22T04:44:01;14.23;;;3.13;;
11135;SDS011;5622;50.840;4.948;2023-12-22T04:46:28;12.00;;;3.00;;
11135;SDS011;5622;50.840;4.948;2023-12-22T04:48:56;10.50;;;3.33;;
11135;SDS011;5622;50.840;4.948;2023-12-22T04:51:23;22.63;;;3.83;;
11135;SDS011;5622;50.840;4.948;2023-12-22T04:53:50;17.57;;;3.57;;
11135;SDS011;5622;50.840;4.948;2023-12-22T04:56:18;13.70;;;3.30;;
11135;SDS011;5622;50.840;4.948;2023-12-22T04:58:46;15.40;;;3.50;;
11135;SDS011;5622;50.840;4.948;2023-12-22T05:01:13;19.93;;;3.87;;
11135;SDS011;5622;50.840;4.948;2023-12-22T05:03:40;17.63;;;4.20;;
11135;SDS011;5622;50.840;4.948;2023-12-22T05:06:07;18.73;;;4.30;;
11135;SDS011;5622;50.840;4.948;2023-12-22T05:08:34;21.90;;;3.93;;
11135;SDS011;5622;50.840;4.948;2023-12-22T05:11:01;24.93;;;4.73;;
11135;SDS011;5622;50.840;4.948;2023-12-22T05:13:30;22.90;;;4.50;;
11135;SDS011;5622;50.840;4.948;2023-12-22T05:15:57;18.57;;;3.70;;
11135;SDS011;5622;50.840;4.948;2023-12-22T05:18:24;20.47;;;4.10;;
11135;SDS011;5622;50.840;4.948;2023-12-22T05:20:52;17.33;;;4.00;;
11135;SDS011;5622;50.840;4.948;2023-12-22T05:23:19;24.47;;;4.97;;
11135;SDS011;5622;50.840;4.948;2023-12-22T05:25:46;21.63;;;4.50;;
11135;SDS011;5622;50.840;4.948;2023-12-22T05:28:13;16.83;;;3.93;;
11135;SDS011;5622;50.840;4.948;2023-12-22T05:30:42;25.90;;;4.40;;
11135;SDS011;5622;50.840;4.948;2023-12-22T05:33:09;25.67;;;4.67;;
11135;SDS011;5622;50.840;4.948;2023-12-22T05:35:36;20.00;;;4.80;;
11135;SDS011;5622;50.840;4.948;2023-12-22T05:38:03;18.47;;;5.03;;
11135;SDS011;5622;50.840;4.948;2023-12-22T05:40:31;22.33;;;4.40;;
11135;SDS011;5622;50.840;4.948;2023-12-22T05:42:58;19.93;;;4.53;;
11135;SDS011;5622;50.840;4.948;2023-12-22T05:45:25;22.00;;;5.13;;
11135;SDS011;5622;50.840;4.948;2023-12-22T05:47:53;28.83;;;5.23;;
11135;SDS011;5622;50.840;4.948;2023-12-22T05:50:20;20.53;;;4.20;;
11135;SDS011;5622;50.840;4.948;2023-12-22T05:52:49;19.63;;;4.50;;
11135;SDS011;5622;50.840;4.948;2023-12-22T05:55:16;22.00;;;5.33;;
11135;SDS011;5622;50.840;4.948;2023-12-22T05:57:43;19.97;;;4.00;;
11135;SDS011;5622;50.840;4.948;2023-12-22T06:00:10;24.77;;;4.73;;
11135;SDS011;5622;50.840;4.948;2023-12-22T06:02:40;21.80;;;4.83;;
11135;SDS011;5622;50.840;4.948;2023-12-22T06:05:08;21.33;;;4.87;;
11135;SDS011;5622;50.840;4.948;2023-12-22T06:07:38;20.53;;;4.83;;
11135;SDS011;5622;50.840;4.948;2023-12-22T06:10:05;27.73;;;5.00;;
11135;SDS011;5622;50.840;4.948;2023-12-22T06:12:34;18.80;;;4.50;;
11135;SDS011;5622;50.840;4.948;2023-12-22T06:15:01;27.90;;;6.07;;
11135;SDS011;5622;50.840;4.948;2023-12-22T06:17:29;25.10;;;4.67;;
11135;SDS011;5622;50.840;4.948;2023-12-22T06:19:56;18.97;;;4.47;;
11135;SDS011;5622;50.840;4.948;2023-12-22T06:22:26;18.17;;;4.00;;
11135;SDS011;5622;50.840;4.948;2023-12-22T06:24:53;24.30;;;5.43;;
11135;SDS011;5622;50.840;4.948;2023-12-22T06:27:20;25.50;;;5.17;;
11135;SDS011;5622;50.840;4.948;2023-12-22T06:29:47;24.43;;;5.67;;
11135;SDS011;5622;50.840;4.948;2023-12-22T06:32:14;26.27;;;4.93;;
11135;SDS011;5622;50.840;4.948;2023-12-22T06:34:42;20.20;;;4.67;;
11135;SDS011;5622;50.840;4.948;2023-12-22T06:37:10;24.40;;;5.43;;
11135;SDS011;5622;50.840;4.948;2023-12-22T06:39:38;23.87;;;4.70;;
11135;SDS011;5622;50.840;4.948;2023-12-22T06:42:06;23.33;;;5.20;;
11135;SDS011;5622;50.840;4.948;2023-12-22T06:44:36;19.53;;;4.87;;
11135;SDS011;5622;50.840;4.948;2023-12-22T06:47:03;14.30;;;4.77;;
11135;SDS011;5622;50.840;4.948;2023-12-22T06:49:31;20.17;;;4.40;;
11135;SDS011;5622;50.840;4.948;2023-12-22T06:51:58;22.07;;;5.10;;
11135;SDS011;5622;50.840;4.948;2023-12-22T06:54:25;22.13;;;4.83;;
11135;SDS011;5622;50.840;4.948;2023-12-22T06:56:53;14.63;;;4.07;;
11135;SDS011;5622;50.840;4.948;2023-12-22T06:59:20;16.00;;;4.13;;
11135;SDS011;5622;50.840;4.948;2023-12-22T07:01:47;18.63;;;4.03;;
11135;SDS011;5622;50.840;4.948;2023-12-22T07:04:14;19.97;;;4.17;;
11135;SDS011;5622;50.840;4.948;2023-12-22T07:06:41;17.23;;;4.47;;
11135;SDS011;5622;50.840;4.948;2023-12-22T07:11:57;12.67;;;3.90;;
11135;SDS011;5622;50.840;4.948;2023-12-22T07:14:24;19.00;;;4.20;;
11135;SDS011;5622;50.840;4.948;2023-12-22T07:16:51;13.70;;;3.73;;
11135;SDS011;5622;50.840;4.948;2023-12-22T07:19:18;14.90;;;3.90;;
11135;SDS011;5622;50.840;4.948;2023-12-22T07:21:45;19.17;;;4.10;;
11135;SDS011;5622;50.840;4.948;2023-12-22T07:24:13;14.67;;;3.93;;
11135;SDS011;5622;50.840;4.948;2023-12-22T07:26:41;18.23;;;3.73;;
11135;SDS011;5622;50.840;4.948;2023-12-22T07:29:10;19.00;;;3.60;;
11135;SDS011;5622;50.840;4.948;2023-12-22T07:31:38;11.53;;;3.07;;
11135;SDS011;5622;50.840;4.948;2023-12-22T07:34:05;10.43;;;3.90;;
11135;SDS011;5622;50.840;4.948;2023-12-22T07:36:32;13.03;;;3.13;;
11135;SDS011;5622;50.840;4.948;2023-12-22T07:38:59;9.23;;;3.07;;
11135;SDS011;5622;50.840;4.948;2023-12-22T07:41:26;15.53;;;3.33;;
11135;SDS011;5622;50.840;4.948;2023-12-22T07:43:53;16.00;;;3.17;;
11135;SDS011;5622;50.840;4.948;2023-12-22T07:46:22;10.73;;;3.17;;
11135;SDS011;5622;50.840;4.948;2023-12-22T07:48:49;10.17;;;3.23;;
11135;SDS011;5622;50.840;4.948;2023-12-22T07:51:16;13.37;;;2.80;;
11135;SDS011;5622;50.840;4.948;2023-12-22T07:53:43;14.07;;;3.10;;
11135;SDS011;5622;50.840;4.948;2023-12-22T07:56:10;10.57;;;2.70;;
11135;SDS011;5622;50.840;4.948;2023-12-22T07:58:37;13.57;;;3.37;;
11135;SDS011;5622;50.840;4.948;2023-12-22T08:01:04;15.37;;;3.57;;
11135;SDS011;5622;50.840;4.948;2023-12-22T08:03:33;8.40;;;2.80;;
11135;SDS011;5622;50.840;4.948;2023-12-22T08:06:00;11.27;;;2.47;;
11135;SDS011;5622;50.840;4.948;2023-12-22T08:08:27;19.97;;;3.20;;
11135;SDS011;5622;50.840;4.948;2023-12-22T08:10:54;9.27;;;2.77;;
11135;SDS011;5622;50.840;4.948;2023-12-22T08:13:23;8.77;;;3.17;;
11135;SDS011;5622;50.840;4.948;2023-12-22T08:15:50;9.13;;;2.17;;
11135;SDS011;5622;50.840;4.948;2023-12-22T08:18:18;13.63;;;3.17;;
11135;SDS011;5622;50.840;4.948;2023-12-22T08:20:46;10.47;;;2.70;;
11135;SDS011;5622;50.840;4.948;2023-12-22T08:23:14;9.00;;;2.93;;
11135;SDS011;5622;50.840;4.948;2023-12-22T08:25:41;8.00;;;2.80;;
11135;SDS011;5622;50.840;4.948;2023-12-22T08:28:09;12.03;;;2.90;;
11135;SDS011;5622;50.840;4.948;2023-12-22T08:30:37;8.17;;;2.43;;
11135;SDS011;5622;50.840;4.948;2023-12-22T08:33:04;9.00;;;2.50;;
11135;SDS011;5622;50.840;4.948;2023-12-22T08:35:31;8.53;;;2.30;;
11135;SDS011;5622;50.840;4.948;2023-12-22T08:38:00;8.37;;;3.10;;
11135;SDS011;5622;50.840;4.948;2023-12-22T08:40:27;6.90;;;2.30;;
11135;SDS011;5622;50.840;4.948;2023-12-22T08:42:54;6.00;;;2.43;;
11135;SDS011;5622;50.840;4.948;2023-12-22T08:45:25;4.13;;;1.73;;
11135;SDS011;5622;50.840;4.948;2023-12-22T08:47:53;7.07;;;2.27;;
11135;SDS011;5622;50.840;4.948;2023-12-22T08:50:21;3.97;;;2.03;;
11135;SDS011;5622;50.840;4.948;2023-12-22T08:52:48;4.53;;;2.07;;
11135;SDS011;5622;50.840;4.948;2023-12-22T08:55:17;5.07;;;2.23;;
11135;SDS011;5622;50.840;4.948;2023-12-22T08:57:44;4.70;;;2.17;;
11135;SDS011;5622;50.840;4.948;2023-12-22T09:00:11;7.83;;;2.30;;
11135;SDS011;5622;50.840;4.948;2023-12-22T09:02:46;8.23;;;2.73;;
11135;SDS011;5622;50.840;4.948;2023-12-22T09:05:13;3.90;;;2.40;;
11135;SDS011;5622;50.840;4.948;2023-12-22T09:07:42;7.63;;;2.40;;
11135;SDS011;5622;50.840;4.948;2023-12-22T09:10:09;3.23;;;2.73;;
11135;SDS011;5622;50.840;4.948;2023-12-22T09:12:39;6.93;;;3.20;;
11135;SDS011;5622;50.840;4.948;2023-12-22T12:18:16;3.77;;;1.70;;
11135;SDS011;5622;50.840;4.948;2023-12-22T12:20:51;5.10;;;1.53;;
11135;SDS011;5622;50.840;4.948;2023-12-22T12:23:18;6.20;;;1.63;;
11135;SDS011;5622;50.840;4.948;2023-12-22T12:25:45;2.03;;;1.30;;
11135;SDS011;5622;50.840;4.948;2023-12-22T12:28:13;2.53;;;1.33;;
11135;SDS011;5622;50.840;4.948;2023-12-22T12:30:43;2.30;;;1.30;;
11135;SDS011;5622;50.840;4.948;2023-12-22T12:33:12;3.10;;;1.57;;
11135;SDS011;5622;50.840;4.948;2023-12-22T12:35:42;2.63;;;1.50;;
11135;SDS011;5622;50.840;4.948;2023-12-22T12:38:11;1.67;;;1.30;;
11135;SDS011;5622;50.840;4.948;2023-12-22T12:40:38;5.50;;;1.60;;
11135;SDS011;5622;50.840;4.948;2023-12-22T12:43:06;3.03;;;1.60;;
11135;SDS011;5622;50.840;4.948;2023-12-22T12:45:34;2.80;;;1.30;;
11135;SDS011;5622;50.840;4.948;2023-12-22T12:48:01;4.43;;;1.63;;
11135;SDS011;5622;50.840;4.948;2023-12-22T12:50:29;6.33;;;1.33;;
11135;SDS011;5622;50.840;4.948;2023-12-22T12:52:59;5.30;;;1.70;;
11135;SDS011;5622;50.840;4.948;2023-12-22T12:55:26;2.80;;;1.30;;
11135;SDS011;5622;50.840;4.948;2023-12-22T12:57:55;2.97;;;1.60;;
11135;SDS011;5622;50.840;4.948;2023-12-22T13:00:26;3.40;;;1.47;;
11135;SDS011;5622;50.840;4.948;2023-12-22T13:02:53;2.60;;;1.20;;
11135;SDS011;5622;50.840;4.948;2023-12-22T13:05:21;1.60;;;1.30;;
11135;SDS011;5622;50.840;4.948;2023-12-22T13:07:49;2.47;;;1.30;;
11135;SDS011;5622;50.840;4.948;2023-12-22T13:10:21;3.47;;;1.53;;
11135;SDS011;5622;50.840;4.948;2023-12-22T13:12:50;3.13;;;1.83;;
11135;SDS011;5622;50.840;4.948;2023-12-22T13:15:19;3.13;;;1.23;;
11135;SDS011;5622;50.840;4.948;2023-12-22T13:17:46;5.10;;;1.77;;
11135;SDS011;5622;50.840;4.948;2023-12-22T13:20:13;3.53;;;1.33;;
11135;SDS011;5622;50.840;4.948;2023-12-22T13:22:41;4.60;;;1.50;;
11135;SDS011;5622;50.840;4.948;2023-12-22T13:25:08;4.93;;;1.80;;
11135;SDS011;5622;50.840;4.948;2023-12-22T13:27:45;5.97;;;1.77;;
11135;SDS011;5622;50.840;4.948;2023-12-22T13:30:12;2.47;;;1.50;;
11135;SDS011;5622;50.840;4.948;2023-12-22T13:32:40;1.73;;;1.40;;
11135;SDS011;5622;50.840;4.948;2023-12-22T13:35:07;7.20;;;1.50;;
11135;SDS011;5622;50.840;4.948;2023-12-22T13:37:40;4.53;;;1.80;;
11135;SDS011;5622;50.840;4.948;2023-12-22T13:40:08;4.00;;;1.60;;
11135;SDS011;5622;50.840;4.948;2023-12-22T13:42:36;6.00;;;2.13;;
11135;SDS011;5622;50.840;4.948;2023-12-22T13:45:06;6.30;;;1.97;;
11135;SDS011;5622;50.840;4.948;2023-12-22T13:47:39;4.27;;;1.63;;
11135;SDS011;5622;50.840;4.948;2023-12-22T13:50:15;2.20;;;1.30;;
11135;SDS011;5622;50.840;4.948;2023-12-22T13:52:43;4.57;;;1.57;;
11135;SDS011;5622;50.840;4.948;2023-12-22T13:55:14;3.13;;;1.20;;
11135;SDS011;5622;50.840;4.948;2023-12-22T13:57:42;3.93;;;1.30;;
11135;SDS011;5622;50.840;4.948;2023-12-22T14:00:28;5.30;;;2.03;;
11135;SDS011;5622;50.840;4.948;2023-12-22T14:02:56;5.43;;;1.63;;
11135;SDS011;5622;50.840;4.948;2023-12-22T14:05:23;2.47;;;1.30;;
11135;SDS011;5622;50.840;4.948;2023-12-22T14:07:51;4.50;;;2.00;;
11135;SDS011;5622;50.840;4.948;2023-12-22T14:10:18;4.50;;;1.93;;
11135;SDS011;5622;50.840;4.948;2023-12-22T14:12:46;5.00;;;1.50;;
11135;SDS011;5622;50.840;4.948;2023-12-22T14:15:13;5.90;;;1.63;;
11135;SDS011;5622;50.840;4.948;2023-12-22T14:17:42;4.57;;;1.40;;
11135;SDS011;5622;50.840;4.948;2023-12-22T14:20:09;7.30;;;1.50;;
11135;SDS011;5622;50.840;4.948;2023-12-22T14:22:36;4.97;;;1.70;;
11135;SDS011;5622;50.840;4.948;2023-12-22T14:25:06;1.97;;;1.60;;
11135;SDS011;5622;50.840;4.948;2023-12-22T14:27:34;4.27;;;1.40;;
11135;SDS011;5622;50.840;4.948;2023-12-22T14:30:01;7.40;;;1.67;;
11135;SDS011;5622;50.840;4.948;2023-12-22T14:32:30;5.53;;;1.43;;
11135;SDS011;5622;50.840;4.948;2023-12-22T14:34:59;2.87;;;1.33;;
11135;SDS011;5622;50.840;4.948;2023-12-22T14:37:27;5.73;;;1.40;;
11135;SDS011;5622;50.840;4.948;2023-12-22T14:39:54;2.50;;;1.30;;
11135;SDS011;5622;50.840;4.948;2023-12-22T14:42:21;3.57;;;1.43;;
11135;SDS011;5622;50.840;4.948;2023-12-22T14:44:48;1.80;;;1.20;;
11135;SDS011;5622;50.840;4.948;2023-12-22T14:47:16;3.43;;;1.33;;
11135;SDS011;5622;50.840;4.948;2023-12-22T14:49:43;4.37;;;1.60;;
11135;SDS011;5622;50.840;4.948;2023-12-22T14:52:11;7.57;;;2.30;;
11135;SDS011;5622;50.840;4.948;2023-12-22T14:54:38;3.83;;;1.70;;
11135;SDS011;5622;50.840;4.948;2023-12-22T14:57:05;4.27;;;1.50;;
11135;SDS011;5622;50.840;4.948;2023-12-22T14:59:32;4.13;;;1.27;;
11135;SDS011;5622;50.840;4.948;2023-12-22T15:01:59;2.87;;;1.43;;
11135;SDS011;5622;50.840;4.948;2023-12-22T15:04:26;3.53;;;1.30;;
11135;SDS011;5622;50.840;4.948;2023-12-22T15:06:53;2.80;;;1.20;;
11135;SDS011;5622;50.840;4.948;2023-12-22T15:09:22;6.80;;;1.40;;
11135;SDS011;5622;50.840;4.948;2023-12-22T15:11:49;7.10;;;1.47;;
11135;SDS011;5622;50.840;4.948;2023-12-22T15:14:20;4.87;;;1.50;;
11135;SDS011;5622;50.840;4.948;2023-12-22T15:16:49;8.70;;;1.60;;
11135;SDS011;5622;50.840;4.948;2023-12-22T15:19:17;9.17;;;2.90;;
11135;SDS011;5622;50.840;4.948;2023-12-22T15:21:44;6.77;;;2.00;;
11135;SDS011;5622;50.840;4.948;2023-12-22T15:24:11;6.63;;;1.30;;
11135;SDS011;5622;50.840;4.948;2023-12-22T15:26:39;3.17;;;1.60;;
11135;SDS011;5622;50.840;4.948;2023-12-22T15:29:08;4.13;;;1.50;;
11135;SDS011;5622;50.840;4.948;2023-12-22T15:31:35;7.03;;;1.80;;
11135;SDS011;5622;50.840;4.948;2023-12-22T15:34:02;2.87;;;1.40;;
11135;SDS011;5622;50.840;4.948;2023-12-22T15:36:30;3.33;;;1.50;;
11135;SDS011;5622;50.840;4.948;2023-12-22T15:38:57;2.40;;;1.30;;
11135;SDS011;5622;50.840;4.948;2023-12-22T15:41:27;2.77;;;1.40;;
11135;SDS011;5622;50.840;4.948;2023-12-22T15:43:56;4.80;;;1.70;;
11135;SDS011;5622;50.840;4.948;2023-12-22T15:46:24;6.50;;;1.60;;
11135;SDS011;5622;50.840;4.948;2023-12-22T15:48:51;3.73;;;1.50;;
11135;SDS011;5622;50.840;4.948;2023-12-22T15:51:18;3.93;;;1.23;;
11135;SDS011;5622;50.840;4.948;2023-12-22T15:53:46;4.17;;;1.70;;
11135;SDS011;5622;50.840;4.948;2023-12-22T15:56:13;4.70;;;1.70;;
11135;SDS011;5622;50.840;4.948;2023-12-22T15:58:41;4.97;;;1.30;;
11135;SDS011;5622;50.840;4.948;2023-12-22T16:01:10;2.40;;;1.43;;
11135;SDS011;5622;50.840;4.948;2023-12-22T16:03:39;5.27;;;1.77;;
11135;SDS011;5622;50.840;4.948;2023-12-22T16:06:07;3.60;;;1.37;;
11135;SDS011;5622;50.840;4.948;2023-12-22T16:08:34;4.10;;;1.50;;
11135;SDS011;5622;50.840;4.948;2023-12-22T16:11:01;4.47;;;1.40;;
11135;SDS011;5622;50.840;4.948;2023-12-22T16:13:29;4.63;;;1.43;;
11135;SDS011;5622;50.840;4.948;2023-12-22T16:15:59;4.10;;;1.60;;
11135;SDS011;5622;50.840;4.948;2023-12-22T16:18:28;7.83;;;1.67;;
11135;SDS011;5622;50.840;4.948;2023-12-22T16:20:55;4.20;;;1.57;;
11135;SDS011;5622;50.840;4.948;2023-12-22T16:23:23;3.93;;;1.40;;
11135;SDS011;5622;50.840;4.948;2023-12-22T16:26:05;3.60;;;1.63;;
11135;SDS011;5622;50.840;4.948;2023-12-22T16:28:36;2.93;;;1.57;;
11135;SDS011;5622;50.840;4.948;2023-12-22T16:31:03;3.30;;;1.40;;
11135;SDS011;5622;50.840;4.948;2023-12-22T16:33:32;4.40;;;1.50;;
11135;SDS011;5622;50.840;4.948;2023-12-22T16:35:59;6.57;;;1.67;;
11135;SDS011;5622;50.840;4.948;2023-12-22T16:38:26;3.60;;;1.50;;
11135;SDS011;5622;50.840;4.948;2023-12-22T16:40:53;4.33;;;1.70;;
11135;SDS011;5622;50.840;4.948;2023-12-22T16:43:20;3.23;;;1.50;;
11135;SDS011;5622;50.840;4.948;2023-12-22T16:45:47;2.77;;;1.20;;
11135;SDS011;5622;50.840;4.948;2023-12-22T16:48:14;6.87;;;1.57;;
11135;SDS011;5622;50.840;4.948;2023-12-22T16:50:44;2.83;;;1.50;;
11135;SDS011;5622;50.840;4.948;2023-12-22T16:53:11;8.57;;;1.70;;
11135;SDS011;5622;50.840;4.948;2023-12-22T16:55:38;5.17;;;1.83;;
11135;SDS011;5622;50.840;4.948;2023-12-22T16:58:05;5.47;;;1.40;;
11135;SDS011;5622;50.840;4.948;2023-12-22T17:00:34;5.27;;;1.40;;
11135;SDS011;5622;50.840;4.948;2023-12-22T17:03:01;4.20;;;1.60;;
11135;SDS011;5622;50.840;4.948;2023-12-22T17:05:28;3.03;;;1.53;;
11135;SDS011;5622;50.840;4.948;2023-12-22T17:07:57;4.60;;;1.63;;
11135;SDS011;5622;50.840;4.948;2023-12-22T17:10:24;5.80;;;1.60;;
11135;SDS011;5622;50.840;4.948;2023-12-22T17:12:53;3.97;;;1.47;;
11135;SDS011;5622;50.840;4.948;2023-12-22T17:15:21;5.33;;;1.80;;
11135;SDS011;5622;50.840;4.948;2023-12-22T17:17:48;5.17;;;1.60;;
11135;SDS011;5622;50.840;4.948;2023-12-22T17:20:15;3.93;;;1.60;;
11135;SDS011;5622;50.840;4.948;2023-12-22T17:22:42;4.30;;;1.73;;
11135;SDS011;5622;50.840;4.948;2023-12-22T17:25:10;4.80;;;1.80;;
11135;SDS011;5622;50.840;4.948;2023-12-22T17:27:38;8.87;;;1.93;;
11135;SDS011;5622;50.840;4.948;2023-12-22T17:30:05;5.70;;;1.40;;
11135;SDS011;5622;50.840;4.948;2023-12-22T17:32:34;6.43;;;1.80;;
11135;SDS011;5622;50.840;4.948;2023-12-22T17:35:01;4.60;;;1.47;;
11135;SDS011;5622;50.840;4.948;2023-12-22T17:37:28;4.10;;;1.57;;
11135;SDS011;5622;50.840;4.948;2023-12-22T17:39:57;3.83;;;1.67;;
11135;SDS011;5622;50.840;4.948;2023-12-22T17:42:25;2.63;;;1.40;;
11135;SDS011;5622;50.840;4.948;2023-12-22T17:44:53;4.40;;;1.40;;
11135;SDS011;5622;50.840;4.948;2023-12-22T17:47:20;6.77;;;2.37;;
11135;SDS011;5622;50.840;4.948;2023-12-22T17:49:47;5.73;;;1.90;;
11135;SDS011;5622;50.840;4.948;2023-12-22T17:52:14;5.63;;;2.30;;
11135;SDS011;5622;50.840;4.948;2023-12-22T17:54:41;5.70;;;2.10;;
11135;SDS011;5622;50.840;4.948;2023-12-22T17:57:08;6.20;;;2.13;;
11135;SDS011;5622;50.840;4.948;2023-12-22T17:59:39;5.10;;;1.63;;
11135;SDS011;5622;50.840;4.948;2023-12-22T18:02:06;3.70;;;1.80;;
11135;SDS011;5622;50.840;4.948;2023-12-22T18:04:36;5.93;;;2.20;;